Time;durP1;ratioP1;P1;durP2;ratioP2;P2;SDS_P1;SDS_P2;PMS_P1;PMS_P2;Temp;Humidity;BMP_temperature;BMP_pressure;BME280_temperature;BME280_humidity;BME280_pressure;Samples;Min_cycle;Max_cycle;Signal;HPM_P1;HPM_P2
2023/10/26 00:00:24;;;;;;;25.33;15.50;;;10.50;99.90;;;;;;5055444;28;20460;-56
2023/10/26 00:02:49;;;;;;;23.42;14.45;;;10.50;99.90;;;;;;5055188;28;20290;-56
2023/10/26 00:05:15;;;;;;;19.63;15.57;;;10.50;99.90;;;;;;5055526;28;20036;-56
2023/10/26 00:07:40;;;;;;;22.38;14.95;;;10.50;99.90;;;;;;5055114;28;20033;-56
2023/10/26 00:10:07;;;;;;;17.93;15.47;;;10.50;99.90;;;;;;5056517;28;20041;-58
2023/10/26 00:12:32;;;;;;;20.35;14.48;;;10.50;99.90;;;;;;5056252;28;20369;-58
2023/10/26 00:14:58;;;;;;;24.30;15.35;;;10.50;99.90;;;;;;5016889;28;20129;-58
2023/10/26 00:17:24;;;;;;;17.92;15.30;;;10.60;99.90;;;;;;5052149;28;20097;-56
2023/10/26 00:19:52;;;;;;;19.40;15.43;;;10.50;99.90;;;;;;5053675;28;20040;-58
2023/10/26 00:22:18;;;;;;;19.75;14.90;;;10.50;99.90;;;;;;5049196;28;20033;-55
2023/10/26 00:24:44;;;;;;;19.70;14.32;;;10.50;99.90;;;;;;5053869;28;20082;-56
2023/10/26 00:27:09;;;;;;;16.85;14.27;;;10.50;99.90;;;;;;5053092;28;20036;-57
2023/10/26 00:29:35;;;;;;;19.60;15.17;;;10.50;99.90;;;;;;5056118;28;20395;-58
2023/10/26 00:32:00;;;;;;;17.30;14.97;;;10.50;99.90;;;;;;5056591;28;20340;-57
2023/10/26 00:34:26;;;;;;;21.23;14.40;;;10.50;99.90;;;;;;5056803;28;20518;-56
2023/10/26 00:36:52;;;;;;;22.88;15.48;;;10.50;99.90;;;;;;5056095;28;20522;-56
2023/10/26 00:39:17;;;;;;;17.92;14.52;;;10.50;99.90;;;;;;5056761;28;20032;-56
2023/10/26 00:41:43;;;;;;;21.77;14.40;;;10.50;99.90;;;;;;5055939;28;20029;-57
2023/10/26 00:44:08;;;;;;;19.27;14.80;;;10.50;99.90;;;;;;5055442;28;20515;-56
2023/10/26 00:46:35;;;;;;;20.90;15.03;;;10.50;99.90;;;;;;5051092;28;20290;-58
2023/10/26 00:49:02;;;;;;;18.05;15.60;;;10.50;99.90;;;;;;5054607;28;20334;-57
2023/10/26 00:51:28;;;;;;;20.25;14.73;;;10.40;99.90;;;;;;5034851;28;20048;-58
2023/10/26 00:53:54;;;;;;;18.45;15.30;;;10.40;99.90;;;;;;5058819;28;20040;-58
2023/10/26 00:56:22;;;;;;;24.25;16.20;;;10.40;99.90;;;;;;5036678;28;20116;-58
2023/10/26 00:58:48;;;;;;;19.10;15.85;;;10.40;99.90;;;;;;5052567;28;20056;-57
2023/10/26 01:01:15;;;;;;;19.13;15.57;;;10.40;99.90;;;;;;5050510;28;20032;-56
2023/10/26 01:03:41;;;;;;;20.63;16.83;;;10.40;99.90;;;;;;5031562;28;20040;-57
2023/10/26 01:06:08;;;;;;;23.45;17.58;;;10.40;99.90;;;;;;5053844;28;20234;-57
2023/10/26 01:08:34;;;;;;;22.33;18.33;;;10.40;99.90;;;;;;5055879;28;20049;-54
2023/10/26 01:11:01;;;;;;;26.13;18.55;;;10.40;99.90;;;;;;5054763;28;20086;-57
2023/10/26 01:13:29;;;;;;;25.05;20.08;;;10.40;99.90;;;;;;5040020;28;20048;-55
2023/10/26 01:15:56;;;;;;;25.20;18.70;;;10.40;99.90;;;;;;5054699;28;20052;-54
2023/10/26 01:18:21;;;;;;;26.90;20.52;;;10.40;99.90;;;;;;5053984;28;20401;-55
2023/10/26 01:20:47;;;;;;;24.13;20.03;;;10.40;99.90;;;;;;5048550;28;20045;-57
2023/10/26 01:23:13;;;;;;;26.00;21.43;;;10.40;99.90;;;;;;5054767;28;20271;-58
2023/10/26 01:25:39;;;;;;;33.78;21.52;;;10.40;99.90;;;;;;5050250;28;20283;-58
2023/10/26 01:28:07;;;;;;;29.23;21.98;;;10.40;99.90;;;;;;5054332;28;21103;-57
2023/10/26 01:30:34;;;;;;;32.53;23.83;;;10.50;99.90;;;;;;5053255;28;20044;-58
2023/10/26 01:32:59;;;;;;;31.88;25.95;;;10.40;99.90;;;;;;5054202;28;20558;-56
2023/10/26 01:35:25;;;;;;;32.50;23.93;;;10.40;99.90;;;;;;5055277;28;20119;-57
2023/10/26 01:37:50;;;;;;;27.07;21.73;;;10.40;99.90;;;;;;5056231;28;20288;-58
2023/10/26 01:40:16;;;;;;;30.42;25.02;;;10.50;99.90;;;;;;5057677;28;20569;-58
2023/10/26 01:42:42;;;;;;;36.67;23.43;;;10.50;99.90;;;;;;5055800;28;20408;-58
2023/10/26 01:45:08;;;;;;;28.45;24.23;;;10.50;99.90;;;;;;5053940;28;20036;-58
2023/10/26 01:47:34;;;;;;;33.35;25.73;;;10.50;99.90;;;;;;5053312;28;20040;-58
2023/10/26 01:49:59;;;;;;;33.50;24.73;;;10.50;99.90;;;;;;5058945;28;20503;-55
2023/10/26 01:52:25;;;;;;;41.17;26.80;;;10.50;99.90;;;;;;5049578;28;20407;-58
2023/10/26 01:54:51;;;;;;;33.35;25.63;;;10.50;99.90;;;;;;5054308;28;21061;-58
2023/10/26 01:57:17;;;;;;;32.90;25.30;;;10.50;99.90;;;;;;5052914;28;20103;-57
2023/10/26 01:59:42;;;;;;;31.23;24.88;;;10.50;99.90;;;;;;5049765;28;20032;-58
2023/10/26 02:02:08;;;;;;;30.43;23.97;;;10.50;99.90;;;;;;5051181;28;20028;-57
2023/10/26 02:04:34;;;;;;;34.70;25.13;;;10.50;99.90;;;;;;5051000;28;20299;-58
2023/10/26 02:06:59;;;;;;;34.15;24.88;;;10.50;99.90;;;;;;5052039;28;20087;-56
2023/10/26 02:09:25;;;;;;;31.60;24.73;;;10.50;99.90;;;;;;5051945;28;20115;-58
2023/10/26 02:11:50;;;;;;;36.60;25.10;;;10.50;99.90;;;;;;5051414;28;20789;-59
2023/10/26 02:14:16;;;;;;;35.83;26.57;;;10.50;99.90;;;;;;5054637;28;20028;-56
2023/10/26 02:16:42;;;;;;;32.87;26.50;;;10.50;99.90;;;;;;5052214;28;20288;-58
2023/10/26 02:19:07;;;;;;;36.17;26.90;;;10.50;99.90;;;;;;5044142;28;20313;-58
2023/10/26 02:21:35;;;;;;;41.13;26.60;;;10.50;99.90;;;;;;5054781;28;20120;-58
2023/10/26 02:24:00;;;;;;;39.10;27.63;;;10.50;99.90;;;;;;5039144;28;20060;-58
2023/10/26 02:26:26;;;;;;;37.57;27.30;;;10.50;99.90;;;;;;5054380;28;20028;-56
2023/10/26 02:28:52;;;;;;;36.90;28.43;;;10.50;99.90;;;;;;5053817;28;21078;-56
2023/10/26 02:31:17;;;;;;;43.55;29.13;;;10.50;99.90;;;;;;5052100;28;20363;-56
2023/10/26 02:33:43;;;;;;;34.15;27.67;;;10.50;99.90;;;;;;5050085;28;20543;-57
2023/10/26 02:36:08;;;;;;;32.20;27.02;;;10.50;99.90;;;;;;5051823;28;20048;-56
2023/10/26 02:38:34;;;;;;;40.25;28.33;;;10.50;99.90;;;;;;5052491;28;20036;-55
2023/10/26 02:41:04;;;;;;;39.47;29.87;;;10.40;99.90;;;;;;5056037;28;20281;-57
2023/10/26 02:43:30;;;;;;;38.60;30.63;;;10.40;99.90;;;;;;5052626;28;20479;-58
2023/10/26 02:46:05;;;;;;;39.78;29.05;;;10.40;99.90;;;;;;5060014;28;20040;-58
2023/10/26 02:48:30;;;;;;;49.30;34.42;;;10.40;99.90;;;;;;5058463;28;20039;-58
2023/10/26 02:50:56;;;;;;;48.30;32.67;;;10.40;99.90;;;;;;5042566;28;20049;-57
2023/10/26 02:53:22;;;;;;;39.45;32.15;;;10.40;99.90;;;;;;5050123;28;20047;-56
2023/10/26 02:55:48;;;;;;;44.05;34.35;;;10.40;99.90;;;;;;5059140;28;20041;-56
2023/10/26 02:58:13;;;;;;;42.65;31.95;;;10.40;99.90;;;;;;5057888;28;20448;-55
2023/10/26 03:00:39;;;;;;;44.55;33.40;;;10.40;99.90;;;;;;5057594;28;20564;-55
2023/10/26 03:03:04;;;;;;;46.73;34.23;;;10.40;99.90;;;;;;5051611;28;20099;-56
2023/10/26 03:05:30;;;;;;;41.70;33.20;;;10.40;99.90;;;;;;5053983;28;20332;-56
2023/10/26 03:07:56;;;;;;;45.88;34.30;;;10.40;99.90;;;;;;5053170;28;20349;-56
2023/10/26 03:10:22;;;;;;;45.83;33.67;;;10.40;99.90;;;;;;5054146;28;20037;-55
2023/10/26 03:12:49;;;;;;;41.28;31.55;;;10.40;99.90;;;;;;5056016;28;20447;-55
2023/10/26 03:15:15;;;;;;;;;;;10.40;99.90;;;;;;5055578;28;20032;-57
2023/10/26 03:17:40;;;;;;;43.88;33.70;;;10.40;99.90;;;;;;5055828;28;19920;-57
2023/10/26 03:20:06;;;;;;;43.88;32.67;;;10.40;99.90;;;;;;5057837;28;20047;-55
2023/10/26 03:22:35;;;;;;;48.50;35.75;;;10.40;99.90;;;;;;5055407;28;20037;-56
2023/10/26 03:25:01;;;;;;;44.28;33.20;;;10.40;99.90;;;;;;5057990;28;20041;-55
2023/10/26 03:27:27;;;;;;;45.95;33.33;;;10.40;99.90;;;;;;5043710;28;20037;-54
2023/10/26 03:29:54;;;;;;;52.38;36.95;;;10.40;99.90;;;;;;5056420;28;20056;-57
2023/10/26 03:32:20;;;;;;;50.35;35.78;;;10.40;99.90;;;;;;5061235;28;20041;-56
2023/10/26 03:34:46;;;;;;;49.70;34.33;;;10.40;99.90;;;;;;5054051;28;20124;-56
2023/10/26 03:37:11;;;;;;;48.28;37.13;;;10.40;99.90;;;;;;5054249;28;20483;-55
2023/10/26 03:39:37;;;;;;;51.53;34.40;;;10.40;99.90;;;;;;5037715;28;20096;-55
2023/10/26 03:42:03;;;;;;;54.90;37.07;;;10.40;99.90;;;;;;5020478;28;20287;-55
2023/10/26 03:44:28;;;;;;;52.55;36.63;;;10.40;99.90;;;;;;5056204;28;20062;-55
2023/10/26 03:46:54;;;;;;;49.70;35.47;;;10.40;99.90;;;;;;5055154;28;20186;-56
2023/10/26 03:49:20;;;;;;;52.10;36.95;;;10.40;99.90;;;;;;5057162;28;20029;-56
2023/10/26 03:51:48;;;;;;;46.40;35.92;;;10.40;99.90;;;;;;5058038;28;20040;-55
2023/10/26 03:54:14;;;;;;;47.75;32.88;;;10.40;99.90;;;;;;5051262;28;20032;-55
2023/10/26 03:56:40;;;;;;;49.47;35.75;;;10.30;99.90;;;;;;5057726;28;20411;-55
2023/10/26 03:59:05;;;;;;;57.13;36.90;;;10.40;99.90;;;;;;5059083;28;20116;-56
2023/10/26 04:01:31;;;;;;;50.60;38.10;;;10.40;99.90;;;;;;5063347;28;20051;-56
2023/10/26 04:03:56;;;;;;;43.70;35.33;;;10.30;99.90;;;;;;5057729;28;20087;-55
2023/10/26 04:06:22;;;;;;;47.33;36.50;;;10.40;99.90;;;;;;5060203;28;20041;-55
2023/10/26 04:08:48;;;;;;;51.43;36.27;;;10.40;99.90;;;;;;5052652;28;20283;-56
2023/10/26 04:11:17;;;;;;;54.25;38.13;;;10.40;99.90;;;;;;5053315;28;20033;-56
2023/10/26 04:13:43;;;;;;;47.90;36.33;;;10.30;99.90;;;;;;5052005;28;20063;-57
2023/10/26 04:16:09;;;;;;;48.13;37.58;;;10.40;99.90;;;;;;5052340;28;20503;-54
2023/10/26 04:18:35;;;;;;;51.50;38.45;;;10.40;99.90;;;;;;5052840;28;20052;-56
2023/10/26 04:21:01;;;;;;;51.63;37.00;;;10.30;99.90;;;;;;5055427;28;20056;-57
2023/10/26 04:23:27;;;;;;;50.07;36.97;;;10.30;99.90;;;;;;5055023;28;20388;-57
2023/10/26 04:25:53;;;;;;;53.33;37.58;;;10.30;99.90;;;;;;5059154;28;20290;-56
2023/10/26 04:28:19;;;;;;;;;;;10.30;99.90;;;;;;5058280;28;20041;-57
2023/10/26 04:30:48;;;;;;;47.30;35.53;;;10.30;99.90;;;;;;5055398;28;19928;-56
2023/10/26 04:33:15;;;;;;;49.75;36.78;;;10.30;99.90;;;;;;5053160;28;20140;-57
2023/10/26 04:35:42;;;;;;;49.17;35.60;;;10.30;99.90;;;;;;5056821;28;20036;-55
2023/10/26 04:38:11;;;;;;;53.22;36.55;;;10.30;99.90;;;;;;5053191;28;20500;-57
2023/10/26 04:40:42;;;;;;;50.78;37.22;;;10.30;99.90;;;;;;5051007;28;20036;-56
2023/10/26 04:43:08;;;;;;;50.70;37.58;;;10.30;99.90;;;;;;5052172;28;20407;-55
2023/10/26 04:45:34;;;;;;;54.60;38.63;;;10.30;99.90;;;;;;5054166;28;20041;-55
2023/10/26 04:48:00;;;;;;;49.47;37.05;;;10.30;99.90;;;;;;5050413;28;20043;-58
2023/10/26 04:50:27;;;;;;;53.42;38.30;;;10.30;99.90;;;;;;5052415;28;20036;-54
2023/10/26 04:52:53;;;;;;;56.90;37.78;;;10.30;99.90;;;;;;5052040;28;20037;-55
2023/10/26 04:55:19;;;;;;;54.10;38.47;;;10.30;99.90;;;;;;5031627;28;20458;-57
2023/10/26 04:57:44;;;;;;;50.53;35.95;;;10.30;99.90;;;;;;5054148;28;20037;-56
2023/10/26 05:00:10;;;;;;;48.80;36.15;;;10.30;99.90;;;;;;5055132;28;20372;-57
2023/10/26 05:02:41;;;;;;;50.60;36.00;;;10.30;99.90;;;;;;5053635;28;20035;-55
2023/10/26 05:05:07;;;;;;;51.53;37.30;;;10.30;99.90;;;;;;5052277;28;20036;-57
2023/10/26 05:07:33;;;;;;;51.75;35.95;;;10.30;99.90;;;;;;5056050;28;20407;-55
2023/10/26 05:10:00;;;;;;;49.50;37.25;;;10.30;99.90;;;;;;5056093;28;20124;-54
2023/10/26 05:12:26;;;;;;;50.60;36.30;;;10.30;99.90;;;;;;5036451;28;20044;-56
2023/10/26 05:14:51;;;;;;;49.55;36.72;;;10.30;99.90;;;;;;5049947;28;20059;-56
2023/10/26 05:17:17;;;;;;;48.03;35.13;;;10.30;99.90;;;;;;5048562;28;20039;-57
2023/10/26 05:19:43;;;;;;;47.72;36.13;;;10.30;99.90;;;;;;5048303;28;20044;-56
2023/10/26 05:22:08;;;;;;;54.78;36.65;;;10.30;99.90;;;;;;5049257;28;20032;-57
2023/10/26 05:24:35;;;;;;;48.23;34.67;;;10.20;99.90;;;;;;5050008;28;20124;-57
2023/10/26 05:27:00;;;;;;;46.80;36.33;;;10.20;99.90;;;;;;5054793;28;20306;-57
2023/10/26 05:29:28;;;;;;;48.58;33.92;;;10.20;99.90;;;;;;5054349;28;20029;-55
2023/10/26 05:31:55;;;;;;;46.97;34.95;;;10.20;99.90;;;;;;5056443;28;20044;-57
2023/10/26 05:34:21;;;;;;;;;;;10.20;99.90;;;;;;5056271;28;20239;-55
2023/10/26 05:36:46;;;;;;;50.72;35.33;;;10.20;99.90;;;;;;5053791;28;20771;-55
2023/10/26 05:39:12;;;;;;;52.22;38.10;;;10.20;99.90;;;;;;5056864;28;20442;-55
2023/10/26 05:41:38;;;;;;;55.10;35.83;;;10.20;99.90;;;;;;5056511;28;20486;-56
2023/10/26 05:44:04;;;;;;;52.58;36.40;;;10.20;99.90;;;;;;5056443;28;20390;-55
2023/10/26 05:46:29;;;;;;;51.85;36.53;;;10.10;99.90;;;;;;5051573;28;20041;-57
2023/10/26 05:48:55;;;;;;;56.50;37.28;;;10.10;99.90;;;;;;5052320;28;20056;-54
2023/10/26 05:51:20;;;;;;;48.88;37.53;;;10.10;99.90;;;;;;5048597;28;20041;-56
2023/10/26 05:53:46;;;;;;;55.90;36.97;;;10.10;99.90;;;;;;5056476;28;20047;-57
2023/10/26 05:56:12;;;;;;;54.78;37.03;;;10.10;99.90;;;;;;5038645;28;20183;-57
2023/10/26 05:58:37;;;;;;;54.47;34.40;;;10.10;99.90;;;;;;5055306;28;20033;-57
2023/10/26 06:01:03;;;;;;;53.47;37.87;;;10.10;99.90;;;;;;5053553;28;20796;-57
2023/10/26 06:03:29;;;;;;;51.38;35.72;;;10.10;99.90;;;;;;5050449;28;20063;-56
2023/10/26 06:05:59;;;;;;;51.97;35.73;;;10.10;99.90;;;;;;5049394;28;20654;-55
2023/10/26 06:08:25;;;;;;;46.70;34.58;;;10.10;99.90;;;;;;5036846;28;20677;-56
2023/10/26 06:10:51;;;;;;;47.83;36.22;;;10.10;99.90;;;;;;5049725;28;20414;-56
2023/10/26 06:13:17;;;;;;;46.70;35.35;;;10.10;99.90;;;;;;5059178;28;20043;-55
2023/10/26 06:15:42;;;;;;;52.78;36.42;;;10.00;99.90;;;;;;5053188;28;20048;-55
2023/10/26 06:18:09;;;;;;;45.47;32.77;;;10.00;99.90;;;;;;5056768;28;20040;-55
2023/10/26 06:20:35;;;;;;;50.63;34.63;;;10.00;99.90;;;;;;5039717;28;20288;-55
2023/10/26 06:23:00;;;;;;;43.35;34.75;;;10.00;99.90;;;;;;5059742;28;20098;-55
2023/10/26 06:25:28;;;;;;;50.60;35.90;;;10.00;99.90;;;;;;5063108;28;20049;-55
2023/10/26 06:27:53;;;;;;;45.78;33.05;;;9.90;99.90;;;;;;5060983;28;20032;-56
2023/10/26 06:30:19;;;;;;;46.60;33.25;;;9.90;99.90;;;;;;5046653;28;20088;-57
2023/10/26 06:32:45;;;;;;;41.95;31.02;;;9.90;99.90;;;;;;5061342;28;20036;-57
2023/10/26 06:35:11;;;;;;;40.33;29.50;;;9.90;99.90;;;;;;5061893;28;20040;-57
2023/10/26 06:37:37;;;;;;;37.33;28.80;;;9.90;99.90;;;;;;5034561;28;20284;-57
2023/10/26 06:40:06;;;;;;;34.22;26.30;;;9.80;99.90;;;;;;5057111;28;20036;-54
2023/10/26 06:42:32;;;;;;;33.15;26.02;;;9.80;99.90;;;;;;5040158;28;20089;-56
2023/10/26 06:44:58;;;;;;;32.67;23.77;;;9.70;99.90;;;;;;5058879;28;20036;-57
2023/10/26 06:47:24;;;;;;;33.22;26.35;;;9.70;99.90;;;;;;5059982;28;20072;-55
2023/10/26 06:49:49;;;;;;;37.80;27.53;;;9.70;99.90;;;;;;5062044;28;20044;-57
2023/10/26 06:52:15;;;;;;;33.40;24.73;;;9.70;99.90;;;;;;5061661;28;20317;-56
2023/10/26 06:54:41;;;;;;;27.02;23.33;;;9.70;99.90;;;;;;5060295;28;20399;-56
2023/10/26 06:57:06;;;;;;;29.07;23.40;;;9.60;99.90;;;;;;5059904;28;20029;-56
2023/10/26 06:59:32;;;;;;;28.43;22.77;;;9.60;99.90;;;;;;5061431;28;20070;-55
2023/10/26 07:01:57;;;;;;;31.07;23.23;;;9.60;99.90;;;;;;5044498;28;20317;-57
2023/10/26 07:04:23;;;;;;;26.90;22.97;;;9.60;99.90;;;;;;5057586;28;20048;-57
2023/10/26 07:06:49;;;;;;;22.38;19.88;;;9.50;99.90;;;;;;5045695;28;20782;-57
2023/10/26 07:09:15;;;;;;;36.13;22.10;;;9.60;99.90;;;;;;5046265;28;20037;-57
2023/10/26 07:11:42;;;;;;;25.55;21.08;;;9.60;99.90;;;;;;5045939;28;20045;-57
2023/10/26 07:14:08;;;;;;;26.05;20.17;;;9.60;99.90;;;;;;5057878;28;20049;-57
2023/10/26 07:16:33;;;;;;;28.33;23.00;;;9.60;99.90;;;;;;5050105;28;20033;-57
2023/10/26 07:18:59;;;;;;;25.58;21.73;;;9.60;99.90;;;;;;5049839;28;20125;-57
2023/10/26 07:21:26;;;;;;;45.00;33.03;;;9.60;99.90;;;;;;5045234;28;20885;-55
2023/10/26 07:23:53;;;;;;;52.40;34.40;;;9.60;99.90;;;;;;5034691;28;20029;-56
2023/10/26 07:26:18;;;;;;;;;;;9.70;99.90;;;;;;5048296;28;20171;-55
2023/10/26 07:28:44;;;;;;;59.35;38.60;;;9.80;99.90;;;;;;5047504;28;20688;-55
2023/10/26 07:31:17;;;;;;;52.58;33.92;;;9.80;99.90;;;;;;5044699;28;20037;-57
2023/10/26 07:33:43;;;;;;;61.05;39.35;;;9.80;99.90;;;;;;5047993;28;20817;-58
2023/10/26 07:36:10;;;;;;;56.23;37.87;;;9.90;99.90;;;;;;5055834;28;20040;-58
2023/10/26 07:38:35;;;;;;;49.17;35.47;;;9.90;99.90;;;;;;5056429;28;20088;-56
2023/10/26 07:41:03;;;;;;;54.60;35.28;;;10.00;99.90;;;;;;5059903;28;20353;-56
2023/10/26 07:43:29;;;;;;;51.00;37.90;;;10.00;99.90;;;;;;5056720;28;20510;-57
2023/10/26 07:45:55;;;;;;;51.80;34.88;;;10.00;99.90;;;;;;5056765;28;20109;-58
2023/10/26 07:48:21;;;;;;;55.25;36.47;;;10.10;99.90;;;;;;5059667;28;20492;-57
2023/10/26 07:50:46;;;;;;;55.78;39.60;;;10.10;99.90;;;;;;5057904;28;20036;-57
2023/10/26 07:53:14;;;;;;;55.20;37.57;;;10.10;99.90;;;;;;5052825;28;20082;-57
2023/10/26 07:55:40;;;;;;;50.22;35.70;;;10.20;99.90;;;;;;5053072;28;20305;-58
2023/10/26 07:58:06;;;;;;;48.70;35.30;;;10.20;99.90;;;;;;5048730;28;20484;-57
2023/10/26 08:00:32;;;;;;;49.20;35.63;;;10.20;99.90;;;;;;5051693;28;20499;-58
2023/10/26 08:02:59;;;;;;;51.80;34.92;;;10.20;99.90;;;;;;5051991;28;20043;-58
2023/10/26 08:05:25;;;;;;;53.40;36.83;;;10.20;99.90;;;;;;5051334;28;20116;-58
2023/10/26 08:07:52;;;;;;;46.15;31.10;;;10.30;99.90;;;;;;5055984;28;20037;-58
2023/10/26 08:10:17;;;;;;;43.95;29.92;;;10.40;99.90;;;;;;5053182;28;20056;-58
2023/10/26 08:12:43;;;;;;;42.03;31.02;;;10.40;99.90;;;;;;5030856;28;20051;-56
2023/10/26 08:15:09;;;;;;;41.95;31.02;;;10.50;99.90;;;;;;5048405;28;20041;-57
2023/10/26 08:17:35;;;;;;;49.33;30.67;;;10.60;99.90;;;;;;5052833;28;20032;-57
2023/10/26 08:20:07;;;;;;;40.97;29.80;;;10.70;99.90;;;;;;5052670;28;20101;-57
2023/10/26 08:22:35;;;;;;;38.30;28.27;;;10.80;99.90;;;;;;5050142;28;20068;-57
2023/10/26 08:25:03;;;;;;;39.80;28.55;;;10.80;99.90;;;;;;5049604;28;20041;-57
2023/10/26 08:27:29;;;;;;;43.58;30.73;;;10.90;99.90;;;;;;5049717;28;20040;-57
2023/10/26 08:29:54;;;;;;;41.33;29.38;;;10.90;99.90;;;;;;5057216;28;20035;-57
2023/10/26 08:32:20;;;;;;;45.60;30.17;;;10.90;99.90;;;;;;5026739;28;20414;-57
2023/10/26 08:34:46;;;;;;;36.07;27.17;;;11.00;99.90;;;;;;5058740;28;20037;-58
2023/10/26 08:37:12;;;;;;;55.95;27.10;;;11.10;99.90;;;;;;5055985;28;20284;-58
2023/10/26 08:39:39;;;;;;;55.38;26.88;;;11.10;99.90;;;;;;5048321;28;20062;-57
2023/10/26 08:42:05;;;;;;;42.38;26.48;;;11.20;99.90;;;;;;5049878;28;20047;-59
2023/10/26 08:44:32;;;;;;;39.47;26.13;;;11.20;99.90;;;;;;5049267;28;20048;-59
2023/10/26 08:47:01;;;;;;;35.53;23.67;;;11.30;99.90;;;;;;5052499;28;20132;-58
2023/10/26 08:49:28;;;;;;;46.30;23.48;;;11.30;99.90;;;;;;5052233;28;20086;-57
2023/10/26 08:51:54;;;;;;;41.00;24.65;;;11.40;99.90;;;;;;5049161;28;20036;-57
2023/10/26 08:54:20;;;;;;;35.22;24.55;;;11.50;99.90;;;;;;5050750;28;20044;-58
2023/10/26 08:56:46;;;;;;;29.33;22.60;;;11.60;99.90;;;;;;5052513;28;20037;-57
2023/10/26 08:59:12;;;;;;;26.70;22.52;;;11.80;99.90;;;;;;5045682;28;20492;-56
2023/10/26 09:01:37;;;;;;;31.30;22.88;;;12.00;99.90;;;;;;5045878;28;20060;-57
2023/10/26 09:04:11;;;;;;;30.10;23.15;;;12.20;99.90;;;;;;5055351;28;20037;-58
2023/10/26 09:06:49;;;;;;;30.10;22.25;;;12.60;99.90;;;;;;5056626;28;20111;-57
2023/10/26 09:09:16;;;;;;;26.27;20.40;;;12.90;99.90;;;;;;5054601;28;20024;-58
2023/10/26 09:11:42;;;;;;;;;;;13.30;99.90;;;;;;5058336;28;20044;-55
2023/10/26 09:14:16;;;;;;;24.02;21.00;;;13.60;99.90;;;;;;5058721;28;20364;-56
2023/10/26 09:16:44;;;;;;;29.83;21.73;;;13.90;99.90;;;;;;5052890;28;20427;-58
2023/10/26 09:19:15;;;;;;;24.52;19.65;;;14.20;99.90;;;;;;5052071;28;20043;-58
2023/10/26 09:21:53;;;;;;;23.50;19.10;;;14.60;99.90;;;;;;5044532;28;20025;-54
2023/10/26 09:24:21;;;;;;;24.17;19.67;;;15.00;99.90;;;;;;5050542;28;20059;-58
2023/10/26 09:26:47;;;;;;;27.48;21.50;;;15.00;99.90;;;;;;5050921;28;20487;-56
2023/10/26 09:29:12;;;;;;;25.27;18.95;;;14.90;99.90;;;;;;5054859;28;21273;-59
2023/10/26 09:31:51;;;;;;;22.17;19.67;;;14.80;99.90;;;;;;5046798;28;20163;-58
2023/10/26 09:34:17;;;;;;;26.25;19.48;;;14.70;99.90;;;;;;5036302;28;20128;-55
2023/10/26 09:37:03;;;;;;;23.23;19.02;;;14.80;99.90;;;;;;5053807;28;20638;-57
2023/10/26 09:39:34;;;;;;;20.67;17.55;;;14.80;99.90;;;;;;5056032;28;20033;-57
2023/10/26 09:42:01;;;;;;;23.83;19.20;;;14.60;99.90;;;;;;5053152;28;20056;-55
2023/10/26 09:44:30;;;;;;;25.23;19.08;;;14.50;99.90;;;;;;5055853;28;20394;-56
2023/10/26 09:46:57;;;;;;;22.85;17.90;;;14.30;99.90;;;;;;5059127;28;20073;-55
2023/10/26 09:49:26;;;;;;;21.17;18.30;;;14.10;99.90;;;;;;5052595;28;20223;-56
2023/10/26 09:51:52;;;;;;;21.23;18.80;;;14.00;99.90;;;;;;5050982;28;20495;-56
2023/10/26 09:54:26;;;;;;;20.88;18.08;;;14.00;99.90;;;;;;5056405;28;20064;-55
2023/10/26 09:57:03;;;;;;;19.73;17.42;;;14.00;99.90;;;;;;5034075;28;20316;-55
2023/10/26 09:59:29;;;;;;;21.27;18.88;;;14.00;99.90;;;;;;5057930;28;20388;-55
2023/10/26 10:01:54;;;;;;;19.45;16.67;;;14.10;99.90;;;;;;5037067;28;20546;-54
2023/10/26 10:04:37;;;;;;;23.80;17.85;;;14.20;99.90;;;;;;5056361;28;20033;-56
2023/10/26 10:07:03;;;;;;;21.23;17.50;;;14.20;99.90;;;;;;5054879;28;20036;-53
2023/10/26 10:09:30;;;;;;;17.45;15.38;;;14.10;99.90;;;;;;5057409;28;20094;-52
2023/10/26 10:12:08;;;;;;;22.60;18.50;;;14.00;99.90;;;;;;5054045;28;20075;-53
2023/10/26 10:14:51;;;;;;;19.52;16.60;;;13.80;99.90;;;;;;5053796;28;20037;-52
2023/10/26 10:17:20;;;;;;;20.45;17.55;;;13.60;99.90;;;;;;5052219;28;20037;-55
2023/10/26 10:20:21;;;;;;;21.95;18.35;;;13.50;99.90;;;;;;5049626;28;20033;-53
2023/10/26 10:22:48;;;;;;;24.42;17.80;;;13.40;99.90;;;;;;4961890;28;20590;-52
2023/10/26 10:25:17;;;;;;;22.80;17.92;;;13.40;99.90;;;;;;5030304;28;20131;-53
2023/10/26 10:27:49;;;;;;;22.60;19.20;;;13.40;99.90;;;;;;5050743;28;20064;-53
2023/10/26 10:30:19;;;;;;;20.25;18.05;;;13.40;99.90;;;;;;5051271;28;20044;-53
2023/10/26 10:32:47;;;;;;;20.58;17.77;;;13.50;99.90;;;;;;5053396;28;20037;-55
2023/10/26 10:35:49;;;;;;;18.02;16.02;;;13.60;99.90;;;;;;5055915;28;20479;-55
2023/10/26 10:38:20;;;;;;;23.02;16.00;;;13.90;99.90;;;;;;4964466;28;20123;-56
2023/10/26 10:40:55;;;;;;;19.75;16.30;;;14.10;99.90;;;;;;4963754;28;20054;-55
2023/10/26 10:43:29;;;;;;;21.73;17.35;;;14.20;99.90;;;;;;4949028;28;20054;-54
2023/10/26 10:45:55;;;;;;;21.10;17.98;;;14.40;99.90;;;;;;4962925;28;20051;-56
2023/10/26 10:48:20;;;;;;;17.05;15.43;;;14.60;99.90;;;;;;4961930;28;20043;-58
2023/10/26 10:50:51;;;;;;;21.02;15.85;;;14.70;99.90;;;;;;4960419;28;20038;-53
2023/10/26 10:53:16;;;;;;;19.02;14.93;;;14.80;99.90;;;;;;4960899;28;20167;-56
2023/10/26 10:55:43;;;;;;;18.50;15.98;;;14.90;99.90;;;;;;4960866;28;20133;-56
2023/10/26 10:58:09;;;;;;;16.73;14.77;;;15.10;99.90;;;;;;4963985;28;20506;-56
2023/10/26 11:00:39;;;;;;;19.83;12.60;;;15.30;99.90;;;;;;4961583;28;20050;-55
2023/10/26 11:03:05;;;;;;;14.57;12.60;;;15.50;99.90;;;;;;4959922;28;20510;-53
2023/10/26 11:05:39;;;;;;;14.52;12.63;;;15.50;99.90;;;;;;4960282;28;21251;-56
2023/10/26 11:08:06;;;;;;;16.52;14.00;;;15.50;99.90;;;;;;4953520;28;20093;-55
2023/10/26 11:10:32;;;;;;;15.77;14.13;;;15.50;99.90;;;;;;4934921;28;20046;-53
2023/10/26 11:12:57;;;;;;;15.45;13.73;;;15.40;99.90;;;;;;5030317;28;20472;-56
2023/10/26 11:15:37;;;;;;;15.35;13.82;;;15.40;99.90;;;;;;5062115;28;20115;-57
2023/10/26 11:18:05;;;;;;;18.10;14.68;;;15.50;99.90;;;;;;5055856;28;20611;-60
2023/10/26 11:20:39;;;;;;;19.38;13.82;;;15.60;99.90;;;;;;5066492;28;20043;-56
2023/10/26 11:23:06;;;;;;;14.93;13.20;;;15.80;99.90;;;;;;5067455;28;20033;-55
2023/10/26 11:25:33;;;;;;;17.42;14.05;;;15.90;99.90;;;;;;5057041;28;20422;-55
2023/10/26 11:27:59;;;;;;;13.95;12.38;;;15.90;99.90;;;;;;5059653;28;20045;-57
2023/10/26 11:30:24;;;;;;;12.57;11.27;;;15.80;99.90;;;;;;5051165;28;20408;-56
2023/10/26 11:32:50;;;;;;;12.43;11.10;;;15.70;99.90;;;;;;5047164;28;20049;-57
2023/10/26 11:35:16;;;;;;;11.68;10.45;;;15.50;99.90;;;;;;5052431;28;20037;-54
2023/10/26 11:37:48;;;;;;;11.52;10.35;;;15.40;99.90;;;;;;5053892;28;20479;-56
2023/10/26 11:40:15;;;;;;;15.55;11.80;;;15.20;99.90;;;;;;5052617;28;20032;-56
2023/10/26 11:42:58;;;;;;;14.65;12.27;;;15.00;99.90;;;;;;5052874;28;20363;-57
2023/10/26 11:45:25;;;;;;;14.50;12.85;;;14.80;99.90;;;;;;5056977;28;20537;-56
2023/10/26 11:47:58;;;;;;;14.27;11.35;;;14.80;99.90;;;;;;5058512;28;20043;-56
2023/10/26 11:50:25;;;;;;;13.27;12.02;;;14.80;99.90;;;;;;5056979;28;20511;-55
2023/10/26 11:52:59;;;;;;;12.15;10.95;;;14.90;99.90;;;;;;5055397;28;20075;-55
2023/10/26 11:55:27;;;;;;;12.93;11.63;;;14.90;99.90;;;;;;5053141;28;20067;-56
2023/10/26 11:57:56;;;;;;;13.50;10.07;;;15.00;99.90;;;;;;5049281;28;20511;-52
2023/10/26 12:00:22;;;;;;;12.57;10.68;;;14.90;99.90;;;;;;5036966;28;20036;-56
2023/10/26 12:02:47;;;;;;;12.52;10.23;;;14.80;99.90;;;;;;5058962;28;20554;-57
2023/10/26 12:05:17;;;;;;;10.25;8.63;;;14.70;99.90;;;;;;5060736;28;20127;-56
2023/10/26 12:07:47;;;;;;;8.80;8.00;;;14.70;99.90;;;;;;5070559;28;20032;-56
2023/10/26 12:10:15;;;;;;;10.73;8.75;;;14.70;99.90;;;;;;5070219;28;20506;-56
2023/10/26 12:12:41;;;;;;;10.75;8.05;;;14.70;99.90;;;;;;5050652;28;20044;-57
2023/10/26 12:15:07;;;;;;;;;;;14.70;99.90;;;;;;5070494;28;20044;-52
2023/10/26 12:17:33;;;;;;;8.38;7.47;;;14.70;99.90;;;;;;5070403;28;20341;-53
2023/10/26 12:19:59;;;;;;;8.60;7.75;;;14.70;99.90;;;;;;5070030;28;20036;-55
2023/10/26 12:22:24;;;;;;;8.82;8.00;;;14.60;99.90;;;;;;5052133;28;20530;-56
2023/10/26 12:24:50;;;;;;;10.07;9.10;;;14.50;99.90;;;;;;5070287;28;20458;-54
2023/10/26 12:27:19;;;;;;;12.25;10.38;;;14.40;99.90;;;;;;5066245;28;20033;-55
2023/10/26 12:29:46;;;;;;;10.88;9.38;;;14.30;99.90;;;;;;5052415;28;20036;-56